createdAt,value
2022-08-03T00:01:35.584Z,19.76
2022-08-03T00:04:04.511Z,19.71
2022-08-03T00:06:36.981Z,19.79
2022-08-03T00:09:06.024Z,19.78
2022-08-03T00:11:34.442Z,19.76
2022-08-03T00:14:02.151Z,19.67
2022-08-03T00:16:29.846Z,19.66
2022-08-03T00:18:57.509Z,19.71
2022-08-03T00:21:25.454Z,19.62
2022-08-03T00:23:54.410Z,19.62
2022-08-03T00:26:22.288Z,19.58
2022-08-03T00:28:50.582Z,19.48
2022-08-03T00:31:35.227Z,19.33
2022-08-03T00:34:06.822Z,19.26
2022-08-03T00:36:34.777Z,19.20
2022-08-03T00:39:03.881Z,19.19
2022-08-03T00:41:31.489Z,19.15
2022-08-03T00:43:59.124Z,19.08
2022-08-03T00:46:26.762Z,19.05
2022-08-03T00:48:54.853Z,19.01
2022-08-03T00:51:23.432Z,18.97
2022-08-03T00:53:51.946Z,18.90
2022-08-03T00:56:20.919Z,18.85
2022-08-03T00:58:48.891Z,18.86
2022-08-03T01:01:16.640Z,18.87
2022-08-03T01:03:45.498Z,18.82
2022-08-03T01:06:18.574Z,18.86
2022-08-03T01:08:53.477Z,18.81
2022-08-03T01:11:33.323Z,18.82
2022-08-03T01:14:18.549Z,18.79
2022-08-03T01:16:56.307Z,18.73
2022-08-03T01:19:39.887Z,18.66
2022-08-03T01:22:19.335Z,18.62
2022-08-03T01:24:57.468Z,18.67
2022-08-03T01:27:32.102Z,18.69
2022-08-03T01:30:07.296Z,18.67
2022-08-03T01:33:02.686Z,18.60
2022-08-03T01:35:38.992Z,18.57
2022-08-03T01:38:12.562Z,18.49
2022-08-03T01:40:42.822Z,18.44
2022-08-03T01:43:13.726Z,18.44
2022-08-03T01:45:44.622Z,18.41
2022-08-03T01:48:16.796Z,18.49
2022-08-03T01:50:46.059Z,18.43
2022-08-03T01:53:16.849Z,18.39
2022-08-03T01:55:47.234Z,18.41
2022-08-03T01:58:17.504Z,18.39
2022-08-03T02:00:48.745Z,18.32
2022-08-03T02:03:17.798Z,18.31
2022-08-03T02:05:46.838Z,18.30
2022-08-03T02:08:17.288Z,18.35
2022-08-03T02:10:47.018Z,18.31
2022-08-03T02:13:17.186Z,18.28
2022-08-03T02:15:48.323Z,18.25
2022-08-03T02:18:16.777Z,18.27
2022-08-03T02:20:45.509Z,18.26
2022-08-03T02:23:13.497Z,18.16
2022-08-03T02:25:46.870Z,18.09
2022-08-03T02:28:19.315Z,18.10
2022-08-03T02:30:54.751Z,18.08
2022-08-03T02:33:27.387Z,18.12
2022-08-03T02:35:56.080Z,18.13
2022-08-03T02:38:29.412Z,18.01
2022-08-03T02:40:59.376Z,18.01
2022-08-03T02:43:29.551Z,17.95
2022-08-03T02:46:21.519Z,17.88
2022-08-03T02:48:53.030Z,17.87
2022-08-03T02:51:22.256Z,17.80
2022-08-03T02:53:50.681Z,17.80
2022-08-03T02:56:20.200Z,17.79
2022-08-03T02:58:50.675Z,17.72
2022-08-03T03:01:20.468Z,17.78
2022-08-03T03:03:49.739Z,17.65
2022-08-03T03:06:20.099Z,17.62
2022-08-03T03:08:51.399Z,17.58
2022-08-03T03:11:20.947Z,17.60
2022-08-03T03:13:50.336Z,17.59
2022-08-03T03:16:20.034Z,17.56
2022-08-03T03:18:49.772Z,17.50
2022-08-03T03:21:20.499Z,17.54
2022-08-03T03:23:49.759Z,17.52
2022-08-03T03:26:18.217Z,17.44
2022-08-03T03:28:47.099Z,17.42
2022-08-03T03:31:15.048Z,17.41
2022-08-03T03:33:44.662Z,17.38
2022-08-03T03:36:12.336Z,17.41
2022-08-03T03:38:40.116Z,17.46
2022-08-03T03:41:07.825Z,17.39
2022-08-03T03:43:35.678Z,17.39
2022-08-03T03:46:03.702Z,17.29
2022-08-03T03:48:32.305Z,17.37
2022-08-03T03:51:01.977Z,17.34
2022-08-03T03:53:29.643Z,17.28
2022-08-03T03:55:57.899Z,17.27
2022-08-03T03:58:30.182Z,17.22
2022-08-03T04:00:57.880Z,17.23
2022-08-03T04:03:25.637Z,17.19
2022-08-03T04:06:10.998Z,17.18
2022-08-03T04:08:59.147Z,17.19
2022-08-03T04:11:31.831Z,17.13
2022-08-03T04:14:02.781Z,17.17
2022-08-03T04:16:34.681Z,17.13
2022-08-03T04:19:11.394Z,17.16
2022-08-03T04:21:44.362Z,17.18
2022-08-03T04:24:15.004Z,17.24
2022-08-03T04:26:45.936Z,17.23
2022-08-03T04:29:17.138Z,17.38
2022-08-03T04:31:47.674Z,17.33
2022-08-03T04:34:15.549Z,17.46
2022-08-03T04:36:48.190Z,17.58
2022-08-03T04:39:21.220Z,17.60
2022-08-03T04:42:07.083Z,17.70
2022-08-03T04:44:39.391Z,17.69
2022-08-03T04:47:07.483Z,17.71
2022-08-03T04:49:37.144Z,17.83
2022-08-03T04:52:06.414Z,17.96
2022-08-03T04:54:42.596Z,18.32
2022-08-03T04:57:22.301Z,18.32
2022-08-03T04:59:55.667Z,18.31
2022-08-03T05:02:28.859Z,18.31
2022-08-03T05:04:56.539Z,18.35
2022-08-03T05:07:25.143Z,18.50
2022-08-03T05:09:57.719Z,18.62
2022-08-03T05:12:33.967Z,18.57
2022-08-03T05:15:01.910Z,18.78
2022-08-03T05:17:30.031Z,18.70
2022-08-03T05:19:58.111Z,18.84
2022-08-03T05:22:25.794Z,19.15
2022-08-03T05:24:54.789Z,19.16
2022-08-03T05:27:22.667Z,19.09
2022-08-03T05:29:51.572Z,19.08
2022-08-03T05:32:19.775Z,19.15
2022-08-03T05:34:47.562Z,19.53
2022-08-03T05:37:15.279Z,19.46
2022-08-03T05:39:43.398Z,19.53
2022-08-03T05:42:12.470Z,19.81
2022-08-03T05:44:40.149Z,19.98
2022-08-03T05:47:08.787Z,20.05
2022-08-03T05:49:36.619Z,20.28
2022-08-03T05:52:21.987Z,20.66
2022-08-03T05:54:55.932Z,20.88
2022-08-03T05:57:26.585Z,21.17
2022-08-03T05:59:57.968Z,21.26
2022-08-03T06:02:26.758Z,21.25
2022-08-03T06:04:54.543Z,21.54
2022-08-03T06:07:22.449Z,21.89
2022-08-03T06:10:35.601Z,22.58
2022-08-03T06:12:41.207Z,23.11
2022-08-03T06:15:11.258Z,23.32
2022-08-03T06:17:46.586Z,23.47
2022-08-03T06:20:14.282Z,23.82
2022-08-03T06:22:50.418Z,23.99
2022-08-03T06:25:21.254Z,24.47
2022-08-03T06:27:50.489Z,24.55
2022-08-03T06:30:21.279Z,24.93
2022-08-03T06:32:51.808Z,25.02
2022-08-03T06:35:20.528Z,25.64
2022-08-03T06:37:49.896Z,26.01
2022-08-03T06:40:21.689Z,26.34
2022-08-03T06:42:53.341Z,26.62
2022-08-03T06:45:22.743Z,26.75
2022-08-03T06:48:01.861Z,27.75
2022-08-03T06:50:29.931Z,27.74
2022-08-03T06:52:58.123Z,28.45
2022-08-03T06:55:26.590Z,29.45
2022-08-03T06:57:55.756Z,28.44
2022-08-03T07:00:28.983Z,29.14
2022-08-03T07:02:58.477Z,29.33
2022-08-03T07:05:26.875Z,29.57
2022-08-03T07:07:56.770Z,30.17
2022-08-03T07:10:24.773Z,30.50
2022-08-03T07:12:56.373Z,30.61
2022-08-03T07:15:53.831Z,30.82
2022-08-03T07:18:13.595Z,31.25
2022-08-03T07:20:42.201Z,31.34
2022-08-03T07:23:16.109Z,31.49
2022-08-03T07:25:47.235Z,31.26
2022-08-03T07:28:14.836Z,31.67
2022-08-03T07:30:43.862Z,31.24
2022-08-03T07:33:11.551Z,31.29
2022-08-03T07:35:39.577Z,31.45
2022-08-03T07:38:07.354Z,31.09
2022-08-03T07:40:35.129Z,31.18
2022-08-03T07:43:03.896Z,31.46
2022-08-03T07:45:32.345Z,31.54
2022-08-03T07:48:01.831Z,31.85
2022-08-03T07:50:29.647Z,32.68
2022-08-03T07:52:58.111Z,32.87
2022-08-03T07:55:27.953Z,32.17
2022-08-03T07:58:03.008Z,32.19
2022-08-03T08:00:30.866Z,31.88
2022-08-03T08:02:58.806Z,32.15
2022-08-03T08:05:28.314Z,32.38
2022-08-03T08:07:56.518Z,32.96
2022-08-03T08:10:24.359Z,33.14
2022-08-03T08:12:52.115Z,33.29
2022-08-03T08:15:19.909Z,32.16
2022-08-03T08:17:49.972Z,32.86
2022-08-03T08:20:27.663Z,33.56
2022-08-03T08:23:01.052Z,32.89
2022-08-03T08:25:30.147Z,32.69
2022-08-03T08:28:31.220Z,32.96
2022-08-03T08:30:46.286Z,32.32
2022-08-03T08:33:22.409Z,32.48
2022-08-03T08:35:51.634Z,32.80
2022-08-03T08:38:20.590Z,32.96
2022-08-03T08:40:48.939Z,33.74
2022-08-03T08:43:16.731Z,33.82
2022-08-03T08:45:46.037Z,34.05
2022-08-03T08:48:14.919Z,33.81
2022-08-03T08:50:42.866Z,34.39
2022-08-03T08:53:18.287Z,34.01
2022-08-03T08:55:57.955Z,34.32
2022-08-03T08:58:30.796Z,34.33
2022-08-03T09:00:58.521Z,34.10
2022-08-03T09:03:30.157Z,33.87
2022-08-03T09:06:00.636Z,33.87
2022-08-03T09:08:28.759Z,33.60
2022-08-03T09:10:57.689Z,34.30
2022-08-03T09:13:25.775Z,34.26
2022-08-03T09:16:12.080Z,33.79
2022-08-03T09:18:39.892Z,34.29
2022-08-03T09:21:30.608Z,34.46
2022-08-03T09:24:05.635Z,34.89
2022-08-03T09:26:37.952Z,35.29
2022-08-03T09:29:13.223Z,35.27
2022-08-03T09:31:45.084Z,35.82
2022-08-03T09:34:15.767Z,35.42
2022-08-03T09:36:44.872Z,35.34
2022-08-03T09:39:14.918Z,35.63
2022-08-03T09:41:45.094Z,35.73
2022-08-03T09:44:16.167Z,36.59
2022-08-03T09:46:56.034Z,36.29
2022-08-03T09:49:24.330Z,35.75
2022-08-03T09:52:32.330Z,36.25
2022-08-03T09:54:40.503Z,35.65
2022-08-03T09:57:10.033Z,35.45
2022-08-03T09:59:38.074Z,34.77
2022-08-03T10:02:06.937Z,35.48
2022-08-03T10:04:34.929Z,36.00
2022-08-03T10:07:05.436Z,36.22
2022-08-03T10:09:33.387Z,35.87
2022-08-03T10:12:10.469Z,36.24
2022-08-03T10:14:39.756Z,36.95
2022-08-03T10:17:07.481Z,35.63
2022-08-03T10:19:35.207Z,35.76
2022-08-03T10:22:05.551Z,36.22
2022-08-03T10:24:36.132Z,36.59
2022-08-03T10:27:07.149Z,36.21
2022-08-03T10:29:39.634Z,36.04
2022-08-03T10:32:16.921Z,35.78
2022-08-03T10:34:46.234Z,36.53
2022-08-03T10:37:17.355Z,36.44
2022-08-03T10:39:54.192Z,36.81
2022-08-03T10:42:24.683Z,36.33
2022-08-03T10:45:04.096Z,36.78
2022-08-03T10:47:32.439Z,36.57
2022-08-03T10:50:01.132Z,36.73
2022-08-03T10:52:33.779Z,36.31
2022-08-03T10:55:48.385Z,36.34
2022-08-03T10:58:30.665Z,36.53
2022-08-03T11:00:59.943Z,36.53
2022-08-03T11:03:27.598Z,36.05
2022-08-03T11:06:14.995Z,36.95
2022-08-03T11:08:42.689Z,36.86
2022-08-03T11:11:28.421Z,36.75
2022-08-03T11:14:02.693Z,37.34
2022-08-03T11:16:34.968Z,37.83
2022-08-03T11:19:04.974Z,37.22
2022-08-03T11:21:55.055Z,36.41
2022-08-03T11:24:59.368Z,36.50
2022-08-03T11:27:30.168Z,37.33
2022-08-03T11:30:00.964Z,36.86
2022-08-03T11:32:56.268Z,37.60
2022-08-03T11:35:25.423Z,37.67
2022-08-03T11:38:10.295Z,37.53
2022-08-03T11:40:49.290Z,37.45
2022-08-03T11:43:46.228Z,37.51
2022-08-03T11:46:29.483Z,37.26
2022-08-03T11:49:09.824Z,37.68
2022-08-03T11:51:38.787Z,35.87
2022-08-03T11:54:07.954Z,36.58
2022-08-03T11:56:46.240Z,37.26
2022-08-03T11:59:20.283Z,37.65
2022-08-03T12:01:49.612Z,37.41
2022-08-03T12:04:18.634Z,37.76
2022-08-03T12:06:59.547Z,37.88
2022-08-03T12:09:27.745Z,37.39
2022-08-03T12:12:00.494Z,37.01
2022-08-03T12:14:48.862Z,37.70
2022-08-03T12:17:17.768Z,37.82
2022-08-03T12:19:47.211Z,37.82
2022-08-03T12:22:16.022Z,37.90
2022-08-03T12:24:46.411Z,37.47
2022-08-03T12:27:24.393Z,37.86
2022-08-03T12:29:57.067Z,38.49
2022-08-03T12:32:27.453Z,38.68
2022-08-03T12:35:00.052Z,38.90
2022-08-03T12:37:28.573Z,39.07
2022-08-03T12:40:05.125Z,38.77
2022-08-03T12:42:39.026Z,38.55
2022-08-03T12:45:19.567Z,38.68
2022-08-03T12:47:55.246Z,38.67
2022-08-03T12:50:29.193Z,38.80
2022-08-03T12:52:58.660Z,38.69
2022-08-03T12:55:56.240Z,39.02
2022-08-03T12:58:33.447Z,38.82
2022-08-03T13:01:01.645Z,38.63
2022-08-03T13:03:42.827Z,38.83
2022-08-03T13:06:16.238Z,38.83
2022-08-03T13:08:45.808Z,38.77
2022-08-03T13:11:21.441Z,39.17
2022-08-03T13:13:49.620Z,38.72
2022-08-03T13:16:19.618Z,39.07
2022-08-03T13:18:48.173Z,39.04
2022-08-03T13:21:18.454Z,39.28
2022-08-03T13:23:46.813Z,39.25
2022-08-03T13:26:14.583Z,39.46
2022-08-03T13:28:42.361Z,39.07
2022-08-03T13:31:10.037Z,39.67
2022-08-03T13:33:39.057Z,39.17
2022-08-03T13:36:07.225Z,39.81
2022-08-03T13:38:36.296Z,39.43
2022-08-03T13:41:04.815Z,39.26
2022-08-03T13:43:40.726Z,38.61
2022-08-03T13:46:08.361Z,38.72
2022-08-03T13:48:37.567Z,38.53
2022-08-03T13:51:21.798Z,39.26
2022-08-03T13:53:50.304Z,39.22
2022-08-03T13:56:17.997Z,39.44
2022-08-03T13:58:47.007Z,39.55
2022-08-03T14:01:14.829Z,39.60
2022-08-03T14:03:42.515Z,39.21
2022-08-03T14:06:10.336Z,39.41
2022-08-03T14:08:37.959Z,39.69
2022-08-03T14:11:05.598Z,39.52
2022-08-03T14:13:33.352Z,38.87
2022-08-03T14:16:02.404Z,39.13
2022-08-03T14:18:33.569Z,38.81
2022-08-03T14:21:06.407Z,38.65
2022-08-03T14:23:35.317Z,38.91
2022-08-03T14:26:03.007Z,39.01
2022-08-03T14:28:30.718Z,39.36
2022-08-03T14:30:58.455Z,39.12
2022-08-03T14:33:28.343Z,39.14
2022-08-03T14:35:56.188Z,38.96
2022-08-03T14:38:23.917Z,38.68
2022-08-03T14:40:53.056Z,38.27
2022-08-03T14:43:21.244Z,38.68
2022-08-03T14:45:52.085Z,38.99
2022-08-03T14:50:29.467Z,38.54
2022-08-03T14:51:09.330Z,39.02
2022-08-03T14:53:37.015Z,39.37
2022-08-03T14:56:09.609Z,39.06
2022-08-03T14:58:38.214Z,38.72
2022-08-03T15:02:05.482Z,38.96
2022-08-03T15:03:55.015Z,39.08
2022-08-03T15:06:23.943Z,38.74
2022-08-03T15:09:22.472Z,38.54
2022-08-03T15:11:39.557Z,38.41
2022-08-03T15:14:09.425Z,38.43
2022-08-03T15:16:37.907Z,38.61
2022-08-03T15:20:01.365Z,38.53
2022-08-03T15:21:55.044Z,38.68
2022-08-03T15:24:23.004Z,38.20
2022-08-03T15:26:51.750Z,38.32
2022-08-03T15:30:07.596Z,37.96
2022-08-03T15:32:09.490Z,38.08
2022-08-03T15:34:37.470Z,37.62
2022-08-03T15:37:15.113Z,37.05
2022-08-03T15:39:59.730Z,37.26
2022-08-03T15:42:28.921Z,37.41
2022-08-03T15:44:56.598Z,37.10
2022-08-03T15:47:24.371Z,37.49
2022-08-03T15:49:52.063Z,37.58
2022-08-03T15:52:21.178Z,37.65
2022-08-03T15:54:48.813Z,37.62
2022-08-03T15:57:16.507Z,37.62
2022-08-03T15:59:44.091Z,37.56
2022-08-03T16:02:11.753Z,37.37
2022-08-03T16:04:39.425Z,37.16
2022-08-03T16:07:07.129Z,37.44
2022-08-03T16:09:42.043Z,37.55
2022-08-03T16:12:14.579Z,37.00
2022-08-03T16:14:52.399Z,36.85
2022-08-03T16:17:21.621Z,36.64
2022-08-03T16:19:49.626Z,36.83
2022-08-03T16:22:19.470Z,36.82
2022-08-03T16:24:48.770Z,36.90
2022-08-03T16:27:37.173Z,36.95
2022-08-03T16:30:05.002Z,36.94
2022-08-03T16:32:32.828Z,36.95
2022-08-03T16:35:01.075Z,36.83
2022-08-03T16:37:38.571Z,36.64
2022-08-03T16:40:19.352Z,36.58
2022-08-03T16:42:47.925Z,36.59
2022-08-03T16:45:16.218Z,36.38
2022-08-03T16:47:43.885Z,36.08
2022-08-03T16:50:19.074Z,35.99
2022-08-03T16:52:48.475Z,36.02
2022-08-03T16:55:18.526Z,36.17
2022-08-03T16:58:06.572Z,35.98
2022-08-03T17:00:41.720Z,35.93
2022-08-03T17:03:18.833Z,35.92
2022-08-03T17:05:53.525Z,35.66
2022-08-03T17:08:27.517Z,35.88
2022-08-03T17:10:57.430Z,35.99
2022-08-03T17:13:27.855Z,35.81
2022-08-03T17:16:08.951Z,35.62
2022-08-03T17:18:42.293Z,35.41
2022-08-03T17:21:17.016Z,35.36
2022-08-03T17:23:49.783Z,35.29
2022-08-03T17:26:22.211Z,35.39
2022-08-03T17:28:57.341Z,35.46
2022-08-03T17:31:32.187Z,35.43
2022-08-03T17:34:14.513Z,35.23
2022-08-03T17:39:57.670Z,35.02
2022-08-03T17:42:30.851Z,34.90
2022-08-03T17:45:02.567Z,34.90
2022-08-03T17:47:41.951Z,34.64
2022-08-03T17:50:25.177Z,34.47
2022-08-03T17:53:07.855Z,34.43
2022-08-03T17:55:58.388Z,34.38
2022-08-03T17:58:41.221Z,34.38
2022-08-03T18:01:59.274Z,34.29
2022-08-03T18:04:30.316Z,34.15
2022-08-03T18:07:11.591Z,33.99
2022-08-03T18:10:03.668Z,33.92
2022-08-03T18:12:41.484Z,33.80
2022-08-03T18:15:22.112Z,33.70
2022-08-03T18:17:55.217Z,33.61
2022-08-03T18:20:33.003Z,33.55
2022-08-03T18:23:07.387Z,33.53
2022-08-03T18:25:45.203Z,33.50
2022-08-03T18:28:18.822Z,33.43
2022-08-03T18:30:54.676Z,33.39
2022-08-03T18:34:17.897Z,33.36
2022-08-03T18:36:17.356Z,33.23
2022-08-03T18:38:47.311Z,33.23
2022-08-03T18:41:22.167Z,32.94
2022-08-03T18:44:06.740Z,32.74
2022-08-03T18:46:47.169Z,32.67
2022-08-03T18:49:29.464Z,32.60
2022-08-03T18:52:04.573Z,32.35
2022-08-03T18:54:47.061Z,32.41
2022-08-03T18:57:39.383Z,32.08
2022-08-03T19:00:14.269Z,32.08
2022-08-03T19:02:50.211Z,32.30
2022-08-03T19:05:21.404Z,31.90
2022-08-03T19:07:59.597Z,31.74
2022-08-03T19:10:32.154Z,31.62
2022-08-03T19:13:05.361Z,31.22
2022-08-03T19:15:51.502Z,31.05
2022-08-03T19:18:23.126Z,30.80
2022-08-03T19:20:54.687Z,30.78
2022-08-03T19:23:24.946Z,30.59
2022-08-03T19:25:53.820Z,30.35
2022-08-03T19:28:29.603Z,30.18
2022-08-03T19:31:02.788Z,29.80
2022-08-03T19:33:56.702Z,29.58
2022-08-03T19:36:27.475Z,29.42
2022-08-03T19:38:56.587Z,29.19
2022-08-03T19:41:26.003Z,29.08
2022-08-03T19:44:04.394Z,28.99
2022-08-03T19:46:41.257Z,28.88
2022-08-03T19:49:15.163Z,28.80
2022-08-03T19:51:59.048Z,28.63
2022-08-03T19:54:45.538Z,28.46
2022-08-03T19:57:23.436Z,28.35
2022-08-03T19:59:55.281Z,28.24
2022-08-03T20:02:27.025Z,28.08
2022-08-03T20:04:57.547Z,27.96
2022-08-03T20:07:26.034Z,27.95
2022-08-03T20:09:56.566Z,27.82
2022-08-03T20:12:26.406Z,27.69
2022-08-03T20:14:56.898Z,27.70
2022-08-03T20:17:54.012Z,27.63
2022-08-03T20:20:14.466Z,27.48
2022-08-03T20:22:46.245Z,27.37
2022-08-03T20:25:16.218Z,27.33
2022-08-03T20:28:07.333Z,27.17
2022-08-03T20:30:39.948Z,27.04
2022-08-03T20:33:11.014Z,26.89
2022-08-03T20:35:42.023Z,26.89
2022-08-03T20:38:13.724Z,26.88
2022-08-03T20:40:41.673Z,26.75
2022-08-03T20:43:09.378Z,26.72
2022-08-03T20:45:58.243Z,26.62
2022-08-03T20:48:28.104Z,26.55
2022-08-03T20:50:58.106Z,26.47
2022-08-03T20:53:56.972Z,26.51
2022-08-03T20:56:15.160Z,26.38
2022-08-03T20:58:50.632Z,26.32
2022-08-03T21:01:27.661Z,26.28
2022-08-03T21:04:06.823Z,26.20
2022-08-03T21:06:45.668Z,26.15
2022-08-03T21:09:33.528Z,25.97
2022-08-03T21:12:17.789Z,25.91
2022-08-03T21:14:53.495Z,25.83
2022-08-03T21:17:39.890Z,25.84
2022-08-03T21:20:11.098Z,25.74
2022-08-03T21:22:44.290Z,25.64
2022-08-03T21:25:15.857Z,25.60
2022-08-03T21:27:44.009Z,25.49
2022-08-03T21:30:13.137Z,25.54
2022-08-03T21:32:45.449Z,25.48
2022-08-03T21:35:14.563Z,25.37
2022-08-03T21:37:45.695Z,25.28
2022-08-03T21:40:15.521Z,25.22
2022-08-03T21:42:44.918Z,25.25
2022-08-03T21:45:17.383Z,25.14
2022-08-03T21:47:46.694Z,25.06
2022-08-03T21:50:14.934Z,25.02
2022-08-03T21:52:46.331Z,24.92
2022-08-03T21:55:18.429Z,24.85
2022-08-03T21:57:53.672Z,24.88
2022-08-03T22:00:24.013Z,24.87
2022-08-03T22:02:55.684Z,24.76
2022-08-03T22:05:29.050Z,24.71
2022-08-03T22:08:13.944Z,24.63
2022-08-03T22:10:44.226Z,24.64
2022-08-03T22:13:12.598Z,24.57
2022-08-03T22:15:40.480Z,24.56
2022-08-03T22:18:08.248Z,24.51
2022-08-03T22:20:35.995Z,24.55
2022-08-03T22:23:05.679Z,24.47
2022-08-03T22:25:37.689Z,24.51
2022-08-03T22:28:09.417Z,24.37
2022-08-03T22:30:37.462Z,24.36
2022-08-03T22:33:11.220Z,24.27
2022-08-03T22:35:47.626Z,24.22
2022-08-03T22:38:17.644Z,24.13
2022-08-03T22:40:49.874Z,23.98
2022-08-03T22:43:17.916Z,23.96
2022-08-03T22:46:10.275Z,24.00
2022-08-03T22:48:35.843Z,23.94
2022-08-03T22:51:08.876Z,24.00
2022-08-03T22:53:37.089Z,23.88
2022-08-03T22:56:06.801Z,23.79
2022-08-03T22:58:34.461Z,23.79
2022-08-03T23:01:05.320Z,23.75
2022-08-03T23:04:00.083Z,23.72
2022-08-03T23:06:27.394Z,23.72
2022-08-03T23:08:55.116Z,23.65
2022-08-03T23:11:25.667Z,23.59
2022-08-03T23:13:54.824Z,23.61
2022-08-03T23:16:28.704Z,23.48
2022-08-03T23:18:57.693Z,23.40
2022-08-03T23:21:53.091Z,23.35
2022-08-03T23:24:24.599Z,23.31
2022-08-03T23:26:59.131Z,23.28
2022-08-03T23:29:29.949Z,23.30
2022-08-03T23:31:59.296Z,23.26
2022-08-03T23:34:45.655Z,23.25
2022-08-03T23:37:14.865Z,23.21
2022-08-03T23:39:45.436Z,23.21
2022-08-03T23:42:20.181Z,23.05
2022-08-03T23:44:48.035Z,22.96
2022-08-03T23:47:15.768Z,23.03
2022-08-03T23:49:43.860Z,22.90
2022-08-03T23:52:20.094Z,22.91
2022-08-03T23:55:08.683Z,22.91
2022-08-03T23:57:52.223Z,22.88
